createdAt,value
2023-04-23T00:02:03.352Z,76.41
2023-04-23T00:05:09.376Z,76.31
2023-04-23T00:08:12.798Z,76.33
2023-04-23T00:11:17.278Z,76.49
2023-04-23T00:14:23.399Z,76.24
2023-04-23T00:17:26.260Z,76.29
2023-04-23T00:20:29.029Z,76.75
2023-04-23T00:23:31.710Z,76.41
2023-04-23T00:26:35.740Z,76.55
2023-04-23T00:29:46.356Z,76.78
2023-04-23T00:32:49.090Z,77.04
2023-04-23T00:35:52.271Z,77.20
2023-04-23T00:38:55.041Z,77.60
2023-04-23T00:42:00.374Z,77.92
2023-04-23T00:45:03.945Z,78.22
2023-04-23T00:48:08.035Z,78.62
2023-04-23T00:51:13.030Z,78.63
2023-04-23T00:54:16.109Z,78.99
2023-04-23T00:57:20.286Z,79.84
2023-04-23T01:00:23.371Z,80.25
2023-04-23T01:03:29.859Z,80.47
2023-04-23T01:06:32.623Z,80.27
2023-04-23T01:09:35.500Z,80.48
2023-04-23T01:12:39.662Z,80.56
2023-04-23T01:15:42.710Z,80.73
2023-04-23T01:18:47.366Z,80.87
2023-04-23T01:21:51.441Z,81.31
2023-04-23T01:24:55.937Z,81.61
2023-04-23T01:27:59.464Z,81.74
2023-04-23T01:31:04.121Z,81.87
2023-04-23T01:34:07.778Z,82.37
2023-04-23T01:37:11.372Z,82.91
2023-04-23T01:40:15.777Z,83.27
2023-04-23T01:43:18.664Z,83.59
2023-04-23T01:46:24.868Z,83.68
2023-04-23T01:49:27.735Z,84.12
2023-04-23T01:52:30.406Z,84.40
2023-04-23T01:55:35.745Z,84.14
2023-04-23T01:58:38.868Z,84.24
2023-04-23T02:01:46.640Z,83.72
2023-04-23T02:04:52.900Z,84.21
2023-04-23T02:07:56.270Z,83.63
2023-04-23T02:11:00.587Z,83.46
2023-04-23T02:14:05.444Z,83.33
2023-04-23T02:17:08.226Z,83.83
2023-04-23T02:20:12.127Z,83.96
2023-04-23T02:23:14.823Z,83.86
2023-04-23T02:26:19.601Z,83.59
2023-04-23T02:29:22.302Z,84.06
2023-04-23T02:32:25.071Z,83.95
2023-04-23T02:35:27.889Z,83.97
2023-04-23T02:38:30.553Z,83.88
2023-04-23T02:41:34.698Z,84.41
2023-04-23T02:44:37.365Z,84.48
2023-04-23T02:47:40.386Z,84.23
2023-04-23T02:50:43.048Z,84.44
2023-04-23T02:53:45.807Z,84.92
2023-04-23T02:56:49.925Z,85.53
2023-04-23T02:59:52.755Z,85.47
2023-04-23T03:02:55.754Z,85.80
2023-04-23T03:05:59.459Z,85.49
2023-04-23T03:09:02.312Z,85.93
2023-04-23T03:12:06.639Z,85.76
2023-04-23T03:15:10.293Z,86.06
2023-04-23T03:18:12.939Z,86.14
2023-04-23T03:21:15.802Z,85.97
2023-04-23T03:24:19.049Z,86.42
2023-04-23T03:27:23.012Z,86.18
2023-04-23T03:30:25.962Z,86.79
2023-04-23T03:33:28.641Z,87.55
2023-04-23T03:36:32.294Z,88.03
2023-04-23T03:39:34.932Z,87.69
2023-04-23T03:42:39.068Z,88.39
2023-04-23T03:45:41.740Z,88.40
2023-04-23T03:48:44.395Z,88.09
2023-04-23T03:51:47.029Z,88.17
2023-04-23T03:54:49.683Z,87.67
2023-04-23T03:57:53.694Z,87.60
2023-04-23T04:00:56.538Z,87.30
2023-04-23T04:03:59.611Z,88.12
2023-04-23T04:07:03.092Z,88.18
2023-04-23T04:10:07.852Z,88.03
2023-04-23T04:13:11.920Z,88.15
2023-04-23T04:16:14.632Z,88.13
2023-04-23T04:19:17.331Z,87.96
2023-04-23T04:22:20.023Z,87.63
2023-04-23T04:25:24.167Z,87.85
2023-04-23T04:28:28.527Z,87.50
2023-04-23T04:31:31.387Z,87.81
2023-04-23T04:34:34.068Z,87.67
2023-04-23T04:37:36.996Z,87.91
2023-04-23T04:40:39.947Z,88.36
2023-04-23T04:43:45.304Z,88.02
2023-04-23T04:46:48.088Z,87.79
2023-04-23T04:49:51.544Z,87.77
2023-04-23T04:52:54.180Z,87.49
2023-04-23T04:55:56.869Z,87.27
2023-04-23T04:59:00.919Z,87.13
2023-04-23T05:02:03.627Z,86.68
2023-04-23T05:05:08.121Z,86.20
2023-04-23T05:08:10.985Z,86.12
2023-04-23T05:11:13.710Z,86.32
2023-04-23T05:14:17.718Z,86.15
2023-04-23T05:17:20.495Z,86.03
2023-04-23T05:20:23.769Z,85.54
2023-04-23T05:23:26.703Z,85.60
2023-04-23T05:26:29.781Z,85.27
2023-04-23T05:29:33.981Z,85.08
2023-04-23T05:32:37.182Z,85.41
2023-04-23T05:35:39.975Z,84.88
2023-04-23T05:38:42.660Z,84.64
2023-04-23T05:41:45.365Z,84.27
2023-04-23T05:44:49.442Z,83.54
2023-04-23T05:47:52.703Z,82.75
2023-04-23T05:50:55.553Z,82.26
2023-04-23T05:53:58.538Z,81.91
2023-04-23T05:57:01.971Z,80.76
2023-04-23T06:00:09.835Z,80.03
2023-04-23T06:03:12.876Z,79.84
2023-04-23T06:06:15.746Z,78.64
2023-04-23T06:09:18.487Z,77.02
2023-04-23T06:12:21.239Z,75.99
2023-04-23T06:15:27.174Z,75.61
2023-04-23T06:18:30.026Z,74.66
2023-04-23T06:21:32.762Z,73.56
2023-04-23T06:24:36.527Z,73.53
2023-04-23T06:27:39.491Z,73.64
2023-04-23T06:30:43.502Z,73.61
2023-04-23T06:33:46.253Z,73.88
2023-04-23T06:36:49.018Z,74.01
2023-04-23T06:39:51.701Z,73.80
2023-04-23T06:42:54.388Z,73.50
2023-04-23T06:45:58.603Z,73.42
2023-04-23T06:49:01.273Z,72.60
2023-04-23T06:52:03.933Z,72.22
2023-04-23T06:55:07.605Z,71.57
2023-04-23T06:58:11.891Z,70.44
2023-04-23T07:01:16.838Z,70.46
2023-04-23T07:04:19.504Z,70.34
2023-04-23T07:07:22.182Z,70.22
2023-04-23T07:10:24.932Z,70.28
2023-04-23T07:13:27.937Z,68.39
2023-04-23T07:16:33.945Z,64.68
2023-04-23T07:19:36.728Z,63.23
2023-04-23T07:22:39.475Z,62.77
2023-04-23T07:25:42.198Z,62.89
2023-04-23T07:28:47.329Z,62.69
2023-04-23T07:31:51.475Z,63.67
2023-04-23T07:34:54.183Z,63.14
2023-04-23T07:37:57.971Z,63.79
2023-04-23T07:41:00.721Z,65.21
2023-04-23T07:44:03.802Z,66.49
2023-04-23T07:47:07.851Z,67.15
2023-04-23T07:50:10.923Z,67.45
2023-04-23T07:53:13.567Z,67.28
2023-04-23T07:56:16.259Z,67.13
2023-04-23T07:59:19.044Z,66.70
2023-04-23T08:02:26.257Z,65.70
2023-04-23T08:05:29.680Z,63.21
2023-04-23T08:08:32.454Z,62.52
2023-04-23T08:11:35.069Z,62.29
2023-04-23T08:14:37.854Z,62.39
2023-04-23T08:17:41.864Z,62.58
2023-04-23T08:20:44.678Z,62.15
2023-04-23T08:23:47.535Z,62.25
2023-04-23T08:26:50.301Z,61.72
2023-04-23T08:29:53.117Z,61.47
2023-04-23T08:32:58.106Z,61.15
2023-04-23T08:36:02.250Z,60.24
2023-04-23T08:39:05.717Z,59.52
2023-04-23T08:42:12.694Z,58.71
2023-04-23T08:45:15.702Z,57.24
2023-04-23T08:48:20.901Z,56.72
2023-04-23T08:51:27.140Z,56.80
2023-04-23T08:54:32.600Z,55.84
2023-04-23T08:57:35.725Z,55.37
2023-04-23T09:00:39.739Z,54.40
2023-04-23T09:03:44.025Z,54.47
2023-04-23T09:06:46.976Z,54.22
2023-04-23T09:09:49.761Z,53.88
2023-04-23T09:12:52.704Z,54.06
2023-04-23T09:15:55.353Z,53.95
2023-04-23T09:19:00.719Z,54.15
2023-04-23T09:22:03.774Z,53.45
2023-04-23T09:25:07.877Z,53.40
2023-04-23T09:28:11.291Z,53.21
2023-04-23T09:31:14.267Z,53.21
2023-04-23T09:34:19.338Z,53.24
2023-04-23T09:37:26.588Z,53.16
2023-04-23T09:40:29.334Z,52.90
2023-04-23T09:43:32.014Z,52.37
2023-04-23T09:46:36.435Z,52.57
2023-04-23T09:49:51.767Z,52.09
2023-04-23T09:52:57.078Z,51.99
2023-04-23T09:55:59.777Z,52.47
2023-04-23T09:59:02.419Z,52.73
2023-04-23T10:02:07.923Z,52.74
2023-04-23T10:05:24.363Z,52.63
2023-04-23T10:08:28.898Z,52.53
2023-04-23T10:11:31.766Z,50.87
2023-04-23T10:14:35.013Z,49.83
2023-04-23T10:17:38.997Z,48.81
2023-04-23T10:20:43.882Z,48.36
2023-04-23T10:23:48.704Z,48.26
2023-04-23T10:26:53.980Z,47.41
2023-04-23T10:29:58.791Z,46.72
2023-04-23T10:33:03.247Z,46.35
2023-04-23T10:36:08.480Z,45.11
2023-04-23T10:39:12.291Z,43.49
2023-04-23T10:42:15.576Z,41.24
2023-04-23T10:48:28.849Z,39.77
2023-04-23T10:55:00.123Z,39.91
2023-04-23T10:58:05.339Z,40.46
2023-04-23T11:01:08.034Z,41.04
2023-04-23T11:04:24.528Z,40.46
2023-04-23T11:07:32.621Z,40.75
2023-04-23T11:10:36.121Z,40.52
2023-04-23T11:13:52.776Z,40.70
2023-04-23T11:16:55.529Z,40.44
2023-04-23T11:20:14.026Z,40.03
2023-04-23T11:23:33.363Z,39.76
2023-04-23T11:26:37.509Z,39.60
2023-04-23T11:29:42.415Z,38.88
2023-04-23T11:32:47.837Z,38.46
2023-04-23T11:35:51.333Z,38.12
2023-04-23T11:38:58.358Z,37.72
2023-04-23T11:42:03.476Z,37.38
2023-04-23T11:45:07.420Z,37.18
2023-04-23T11:48:10.280Z,37.36
2023-04-23T11:51:13.027Z,36.85
2023-04-23T11:54:17.218Z,37.16
2023-04-23T11:57:19.885Z,37.08
2023-04-23T12:00:24.948Z,37.31
2023-04-23T12:03:29.339Z,36.35
2023-04-23T12:06:32.070Z,36.29
2023-04-23T12:09:38.083Z,35.97
2023-04-23T12:12:40.757Z,35.92
2023-04-23T12:15:48.407Z,36.13
2023-04-23T12:18:54.906Z,35.43
2023-04-23T12:21:59.830Z,34.97
2023-04-23T12:25:09.467Z,34.94
2023-04-23T12:28:12.205Z,34.92
2023-04-23T12:31:20.112Z,34.32
2023-04-23T12:34:22.894Z,34.44
2023-04-23T12:37:27.461Z,34.49
2023-04-23T12:40:31.653Z,34.24
2023-04-23T12:43:34.382Z,34.08
2023-04-23T12:46:37.060Z,33.96
2023-04-23T12:49:41.388Z,33.27
2023-04-23T12:52:44.299Z,32.96
2023-04-23T12:55:50.180Z,32.83
2023-04-23T12:58:53.001Z,32.63
2023-04-23T13:01:56.413Z,32.85
2023-04-23T13:05:01.178Z,33.37
2023-04-23T13:08:04.333Z,33.45
2023-04-23T13:11:08.322Z,33.86
2023-04-23T13:14:11.083Z,33.99
2023-04-23T13:17:13.712Z,33.48
2023-04-23T13:20:16.919Z,33.50
2023-04-23T13:23:19.609Z,33.11
2023-04-23T13:26:24.107Z,33.33
2023-04-23T13:29:27.395Z,33.89
2023-04-23T13:32:32.310Z,33.47
2023-04-23T13:35:37.583Z,33.90
2023-04-23T13:38:40.595Z,33.73
2023-04-23T13:41:45.665Z,34.21
2023-04-23T13:44:49.349Z,34.17
2023-04-23T13:47:52.094Z,34.17
2023-04-23T13:50:54.787Z,33.91
2023-04-23T13:53:58.254Z,33.42
2023-04-23T13:57:03.987Z,33.69
2023-04-23T14:00:08.312Z,33.45
2023-04-23T14:03:11.235Z,34.05
2023-04-23T14:06:14.019Z,33.99
2023-04-23T14:09:16.690Z,33.47
2023-04-23T14:12:20.967Z,34.00
2023-04-23T14:15:24.110Z,34.22
2023-04-23T14:18:26.799Z,34.16
2023-04-23T14:21:29.552Z,34.46
2023-04-23T14:24:35.620Z,34.67
2023-04-23T14:27:46.220Z,34.90
2023-04-23T14:30:49.030Z,34.86
2023-04-23T14:33:52.056Z,34.85
2023-04-23T14:36:54.891Z,34.92
2023-04-23T14:39:57.809Z,34.14
2023-04-23T14:43:14.531Z,34.83
2023-04-23T14:46:18.419Z,34.88
2023-04-23T14:49:21.775Z,35.05
2023-04-23T14:52:24.551Z,34.72
2023-04-23T14:55:28.052Z,34.89
2023-04-23T14:58:32.218Z,34.77
2023-04-23T15:01:35.087Z,34.89
2023-04-23T15:04:38.029Z,34.97
2023-04-23T15:07:41.309Z,34.89
2023-04-23T15:10:44.806Z,35.06
2023-04-23T15:13:58.313Z,35.32
2023-04-23T15:17:01.187Z,35.41
2023-04-23T15:20:04.365Z,35.12
2023-04-23T15:23:07.122Z,34.94
2023-04-23T15:26:09.868Z,35.09
2023-04-23T15:29:14.174Z,35.38
2023-04-23T15:32:17.084Z,35.81
2023-04-23T15:35:20.056Z,35.79
2023-04-23T15:38:23.123Z,35.95
2023-04-23T15:41:27.143Z,36.39
2023-04-23T15:44:31.170Z,36.41
2023-04-23T15:47:33.826Z,36.34
2023-04-23T15:50:36.744Z,35.68
2023-04-23T15:53:39.559Z,36.44
2023-04-23T15:56:42.236Z,36.86
2023-04-23T15:59:46.253Z,36.99
2023-04-23T16:02:49.466Z,36.95
2023-04-23T16:05:52.350Z,37.22
2023-04-23T16:08:55.127Z,37.12
2023-04-23T16:11:57.801Z,37.28
2023-04-23T16:15:02.157Z,37.31
2023-04-23T16:18:06.303Z,37.28
2023-04-23T16:21:09.149Z,37.32
2023-04-23T16:24:11.831Z,37.04
2023-04-23T16:27:14.847Z,36.68
2023-04-23T16:30:19.035Z,36.74
2023-04-23T16:33:23.978Z,36.76
2023-04-23T16:36:26.887Z,37.07
2023-04-23T16:39:29.546Z,37.22
2023-04-23T16:42:32.342Z,37.63
2023-04-23T16:45:37.983Z,37.70
2023-04-23T16:48:42.239Z,37.85
2023-04-23T16:51:45.084Z,37.94
2023-04-23T16:54:49.342Z,38.40
2023-04-23T16:57:52.166Z,38.75
2023-04-23T17:00:56.647Z,38.67
2023-04-23T17:03:59.538Z,38.83
2023-04-23T17:07:02.467Z,39.12
2023-04-23T17:10:05.905Z,39.40
2023-04-23T17:13:08.693Z,39.87
2023-04-23T17:16:12.891Z,40.21
2023-04-23T17:19:16.142Z,42.01
2023-04-23T17:22:18.952Z,44.27
2023-04-23T17:25:21.676Z,48.70
2023-04-23T17:28:24.464Z,55.20
2023-04-23T17:31:28.599Z,60.12
2023-04-23T17:34:31.284Z,62.85
2023-04-23T17:37:34.279Z,64.53
2023-04-23T17:40:37.485Z,64.93
2023-04-23T17:43:41.696Z,65.64
2023-04-23T17:46:45.707Z,65.95
2023-04-23T17:49:48.408Z,66.95
2023-04-23T17:52:52.308Z,68.18
2023-04-23T17:56:00.186Z,74.45
2023-04-23T17:59:03.764Z,75.91
2023-04-23T18:02:08.057Z,75.24
2023-04-23T18:05:12.820Z,75.76
2023-04-23T18:08:17.204Z,77.58
2023-04-23T18:11:20.051Z,79.31
2023-04-23T18:14:22.845Z,78.67
2023-04-23T18:17:26.975Z,78.45
2023-04-23T18:20:30.314Z,79.90
2023-04-23T18:23:33.036Z,81.60
2023-04-23T18:26:36.027Z,83.27
2023-04-23T18:29:38.697Z,85.12
2023-04-23T18:32:48.465Z,87.25
2023-04-23T18:35:53.225Z,88.66
2023-04-23T18:38:56.278Z,89.22
2023-04-23T18:41:59.226Z,88.56
2023-04-23T18:45:04.449Z,88.82
2023-04-23T18:48:39.060Z,88.98
2023-04-23T18:51:45.728Z,88.49
2023-04-23T18:54:48.386Z,88.69
2023-04-23T18:57:51.056Z,88.47
2023-04-23T19:00:53.771Z,88.72
2023-04-23T19:03:57.993Z,89.27
2023-04-23T19:07:01.201Z,90.01
2023-04-23T19:10:08.576Z,90.24
2023-04-23T19:13:11.481Z,89.97
2023-04-23T19:16:16.317Z,90.26
2023-04-23T19:19:20.430Z,90.43
2023-04-23T19:22:25.701Z,89.74
2023-04-23T19:25:28.418Z,89.36
2023-04-23T19:28:31.275Z,89.41
2023-04-23T19:31:34.123Z,88.87
2023-04-23T19:34:38.168Z,88.69
2023-04-23T19:37:40.915Z,89.07
2023-04-23T19:40:44.115Z,89.82
2023-04-23T19:43:47.234Z,90.99
2023-04-23T19:46:51.128Z,90.93
2023-04-23T19:49:56.251Z,91.11
2023-04-23T19:52:59.008Z,90.70
2023-04-23T19:56:02.161Z,90.47
2023-04-23T19:59:06.956Z,90.42
2023-04-23T20:02:10.319Z,90.75
2023-04-23T20:05:14.452Z,90.38
2023-04-23T20:08:26.251Z,90.00
2023-04-23T20:11:29.166Z,89.85
2023-04-23T20:14:32.758Z,89.79
2023-04-23T20:17:36.212Z,89.49
2023-04-23T20:20:41.961Z,90.12
2023-04-23T20:23:44.684Z,90.17
2023-04-23T20:26:47.390Z,90.37
2023-04-23T20:29:50.098Z,91.23
2023-04-23T20:32:52.885Z,92.05
2023-04-23T20:35:58.748Z,92.44
2023-04-23T20:39:04.968Z,92.79
2023-04-23T20:42:08.790Z,92.89
2023-04-23T20:45:14.325Z,92.79
2023-04-23T20:48:17.072Z,92.28
2023-04-23T20:51:21.452Z,91.69
2023-04-23T20:54:24.122Z,91.42
2023-04-23T20:57:29.085Z,91.77
2023-04-23T21:00:31.806Z,92.12
2023-04-23T21:03:36.908Z,92.78
2023-04-23T21:06:41.228Z,93.34
2023-04-23T21:09:44.466Z,93.89
2023-04-23T21:12:47.775Z,94.13
2023-04-23T21:15:51.342Z,93.89
2023-04-23T21:18:54.257Z,93.26
2023-04-23T21:21:58.328Z,92.72
2023-04-23T21:25:01.094Z,92.84
2023-04-23T21:28:04.460Z,92.97
2023-04-23T21:31:12.902Z,93.33
2023-04-23T21:34:15.894Z,93.50
2023-04-23T21:37:19.917Z,93.38
2023-04-23T21:40:23.286Z,93.65
2023-04-23T21:43:26.216Z,93.99
2023-04-23T21:46:30.335Z,94.21
2023-04-23T21:49:33.195Z,94.72
2023-04-23T21:52:37.840Z,94.63
2023-04-23T21:55:40.646Z,94.57
2023-04-23T21:58:44.364Z,94.77
2023-04-23T22:01:47.336Z,94.82
2023-04-23T22:04:50.375Z,94.18
2023-04-23T22:07:55.455Z,94.19
2023-04-23T22:10:58.380Z,94.35
2023-04-23T22:14:02.179Z,93.93
2023-04-23T22:17:05.073Z,93.97
2023-04-23T22:20:09.692Z,94.51
2023-04-23T22:23:13.715Z,94.02
2023-04-23T22:26:16.428Z,94.20
2023-04-23T22:29:19.131Z,94.35
2023-04-23T22:32:21.749Z,94.72
2023-04-23T22:35:24.606Z,94.29
2023-04-23T22:38:28.656Z,94.42
2023-04-23T22:41:33.132Z,94.49
2023-04-23T22:44:36.978Z,94.50
2023-04-23T22:47:39.750Z,94.20
2023-04-23T22:50:42.723Z,94.17
2023-04-23T22:53:46.726Z,93.92
2023-04-23T22:56:49.378Z,93.37
2023-04-23T22:59:52.195Z,93.13
2023-04-23T23:02:54.937Z,92.66
2023-04-23T23:05:57.637Z,92.32
2023-04-23T23:09:02.163Z,91.43
2023-04-23T23:12:05.646Z,91.21
2023-04-23T23:15:09.529Z,90.97
2023-04-23T23:18:12.340Z,90.48
2023-04-23T23:21:15.914Z,90.04
2023-04-23T23:24:20.036Z,89.75
2023-04-23T23:27:22.719Z,89.46
2023-04-23T23:30:25.972Z,89.26
2023-04-23T23:33:29.401Z,88.56
2023-04-23T23:36:32.989Z,88.76
2023-04-23T23:39:36.996Z,88.29
2023-04-23T23:42:39.659Z,87.74
2023-04-23T23:45:42.350Z,87.46
2023-04-23T23:48:45.308Z,87.21
2023-04-23T23:51:48.443Z,86.89
2023-04-23T23:54:52.452Z,87.07
2023-04-23T23:57:55.460Z,86.85
